Time;durP1;ratioP1;P1;durP2;ratioP2;P2;SDS_P1;SDS_P2;PMS_P1;PMS_P2;Temp;Humidity;BMP_temperature;BMP_pressure;BME280_temperature;BME280_humidity;BME280_pressure;Samples;Min_cycle;Max_cycle;Signal;HPM_P1;HPM_P2
2021/08/15 00:01:40;;;;;;;1.60;1.40;;;;;;;15.73;100.00;26621.50;5032787;28;20957;-72
2021/08/15 00:04:07;;;;;;;0.70;0.70;;;;;;;15.72;100.00;24676.81;5031787;28;20795;-72
2021/08/15 00:06:34;;;;;;;1.00;0.97;;;;;;;15.69;100.00;22807.13;5035447;28;20452;-72
2021/08/15 00:09:03;;;;;;;0.80;0.80;;;;;;;15.72;100.00;20948.38;5034684;28;20465;-75
2021/08/15 00:11:32;;;;;;;0.80;0.70;;;;;;;15.73;100.00;19396.72;5036372;28;20409;-72
2021/08/15 00:14:00;;;;;;;0.80;0.70;;;;;;;15.72;100.00;17377.59;5044104;28;20891;-72
2021/08/15 00:16:27;;;;;;;1.50;1.40;;;;;;;15.68;100.00;15956.09;5056432;28;20420;-71
2021/08/15 00:18:54;;;;;;;1.17;0.90;;;;;;;15.64;100.00;14321.00;5056143;28;20867;-72
2021/08/15 00:21:21;;;;;;;0.80;0.73;;;;;;;15.62;100.00;12713.16;5056350;28;20976;-71
2021/08/15 00:23:51;;;;;;;0.70;0.60;;;;;;;15.59;100.00;10985.81;5056009;28;20523;-72
2021/08/15 00:26:19;;;;;;;0.80;0.80;;;;;;;15.57;100.00;9509.63;5052539;28;20922;-72
2021/08/15 00:28:47;;;;;;;0.90;0.90;;;;;;;15.53;100.00;8311.50;5054326;28;20983;-72
2021/08/15 00:31:15;;;;;;;1.20;1.10;;;;;;;15.53;100.00;7089.06;5053206;28;20464;-72
2021/08/15 00:33:42;;;;;;;0.80;0.70;;;;;;;15.50;100.00;5701.25;5038455;28;20950;-72
2021/08/15 00:36:10;;;;;;;0.87;0.87;;;;;;;15.48;100.00;4451.69;5038344;28;20458;-70
2021/08/15 00:38:38;;;;;;;1.90;1.23;;;;;;;15.43;100.00;2986.28;5037611;28;21043;-70
2021/08/15 00:41:06;;;;;;;0.80;0.70;;;;;;;15.38;100.00;1536.88;5054468;28;20435;-72
2021/08/15 00:43:34;;;;;;;0.73;0.73;;;;;;;15.37;100.00;63.22;5037823;28;20435;-72
2021/08/15 00:46:06;;;;;;;0.70;0.60;;;;;;;15.37;100.00;-1249.69;5053431;28;20432;-71
2021/08/15 00:48:34;;;;;;;0.70;0.60;;;;;;;15.36;100.00;-2227.09;5055645;28;20464;-70
2021/08/15 00:51:02;;;;;;;0.70;0.70;;;;;;;15.39;100.00;-2998.56;5055023;28;20511;-70
2021/08/15 00:53:29;;;;;;;1.07;0.97;;;;;;;15.40;100.00;-3688.72;5055058;28;20965;-70
2021/08/15 00:55:58;;;;;;;0.70;0.60;;;;;;;15.36;100.00;-4371.16;5036991;28;20455;-71
2021/08/15 00:58:26;;;;;;;1.00;0.90;;;;;;;15.42;100.00;-5144.81;5055346;28;20439;-70
2021/08/15 01:00:55;;;;;;;0.93;0.93;;;;;;;15.44;100.00;-5809.25;5054685;28;20514;-70
2021/08/15 01:03:23;;;;;;;1.07;1.00;;;;;;;15.54;100.00;-6311.63;5054954;28;20512;-70
2021/08/15 01:05:50;;;;;;;0.83;0.80;;;;;;;15.53;100.00;-7031.66;5053935;28;20451;-72
2021/08/15 01:08:36;;;;;;;0.80;0.80;;;;;;;15.55;100.00;-7939.22;5055030;28;20824;-72
2021/08/15 01:11:26;;;;;;;0.80;0.70;;;;;;;15.52;100.00;-8428.19;5055442;28;20433;-70
2021/08/15 01:13:54;;;;;;;0.70;0.70;;;;;;;15.61;100.00;-8590.97;5054803;28;20413;-74
2021/08/15 01:16:23;;;;;;;0.80;0.80;;;;;;;15.55;100.00;-8995.97;5053351;28;20424;-71
2021/08/15 01:18:51;;;;;;;0.80;0.80;;;;;;;15.52;100.00;-9459.31;5053799;28;21019;-72
2021/08/15 01:21:18;;;;;;;0.70;0.60;;;;;;;15.50;100.00;-10008.78;5054414;28;20438;-72
2021/08/15 01:23:46;;;;;;;0.80;0.80;;;;;;;15.46;100.00;-10537.78;5053371;28;20464;-70
2021/08/15 01:26:18;;;;;;;0.70;0.70;;;;;;;15.37;100.00;-11316.56;5053823;28;20805;-70
2021/08/15 01:28:47;;;;;;;0.70;0.70;;;;;;;15.36;100.00;-11941.50;5053486;28;20512;-70
2021/08/15 01:31:14;;;;;;;0.70;0.60;;;;;;;15.37;100.00;-12834.84;5050268;28;20451;-70
2021/08/15 01:33:42;;;;;;;0.70;0.67;;;;;;;15.38;100.00;-13480.16;5038884;28;20917;-72
2021/08/15 01:36:12;;;;;;;0.70;0.60;;;;;;;15.53;100.00;-13704.91;5035242;28;20533;-71
2021/08/15 01:38:40;;;;;;;1.57;1.47;;;;;;;15.70;100.00;-14117.47;5033253;28;20453;-71
2021/08/15 01:41:08;;;;;;;0.70;0.70;;;;;;;15.81;100.00;-14331.84;5034426;28;20439;-73
2021/08/15 01:43:48;;;;;;;0.70;0.70;;;;;;;15.97;100.00;-14691.28;5016744;28;20491;-72
2021/08/15 01:46:15;;;;;;;1.10;1.00;;;;;;;15.89;100.00;-15013.81;5033576;28;20425;-72
2021/08/15 01:48:43;;;;;;;1.43;1.33;;;;;;;15.86;100.00;-15198.09;5048212;28;20803;-73
2021/08/15 01:51:10;;;;;;;0.70;0.70;;;;;;;15.78;100.00;-15474.81;5054448;28;20411;-71
2021/08/15 01:53:37;;;;;;;0.93;0.83;;;;;;;15.64;100.00;-15818.81;5044017;28;21051;-72
2021/08/15 01:56:05;;;;;;;0.80;0.80;;;;;;;15.64;100.00;-15909.84;5034143;28;20419;-71
2021/08/15 01:58:32;;;;;;;2.63;1.33;;;;;;;15.63;100.00;-15945.06;5034081;28;20422;-73
2021/08/15 02:01:01;;;;;;;0.77;0.70;;;;;;;15.60;100.00;-16043.19;5016595;28;20792;-70
2021/08/15 02:03:30;;;;;;;1.83;1.73;;;;;;;15.59;100.00;-16272.97;5033367;28;20935;-70
2021/08/15 02:05:57;;;;;;;0.70;0.63;;;;;;;15.63;100.00;-16352.13;5034386;28;20907;-72
2021/08/15 02:08:24;;;;;;;0.80;0.70;;;;;;;15.69;100.00;-16494.91;5033886;28;20517;-70
2021/08/15 02:10:52;;;;;;;0.70;0.70;;;;;;;15.88;100.00;-16814.84;5017689;28;20441;-70
2021/08/15 02:13:18;;;;;;;0.80;0.70;;;;;;;16.04;100.00;-17065.81;5051330;28;20440;-73
2021/08/15 02:15:45;;;;;;;0.70;0.63;;;;;;;16.21;100.00;-16993.47;5054126;28;20431;-72
2021/08/15 02:18:14;;;;;;;0.70;0.70;;;;;;;16.22;100.00;-16892.38;5054032;28;20434;-72
2021/08/15 02:20:41;;;;;;;0.70;0.67;;;;;;;16.21;100.00;-16801.16;5050893;28;20500;-72
2021/08/15 02:23:11;;;;;;;1.57;1.47;;;;;;;16.35;100.00;-16459.81;5046733;28;20467;-72
2021/08/15 02:25:38;;;;;;;0.70;0.60;;;;;;;16.42;100.00;-15992.75;5053393;28;20523;-73
2021/08/15 02:28:06;;;;;;;0.70;0.60;;;;;;;16.35;100.00;-15553.44;5034758;28;20475;-73
2021/08/15 02:30:34;;;;;;;0.93;0.93;;;;;;;16.40;100.00;-15086.00;5053710;28;21142;-72
2021/08/15 02:33:01;;;;;;;0.70;0.63;;;;;;;16.52;100.00;-14482.50;5053424;28;20416;-71
2021/08/15 02:35:31;;;;;;;0.70;0.60;;;;;;;16.35;100.00;-14079.66;5053063;28;20767;-72
2021/08/15 02:37:59;;;;;;;0.70;0.60;;;;;;;16.35;100.00;-13897.19;5053617;28;20467;-72
2021/08/15 02:40:26;;;;;;;1.20;1.10;;;;;;;16.39;100.00;-13401.25;5053520;28;20508;-73
2021/08/15 02:42:54;;;;;;;0.70;0.70;;;;;;;16.33;100.00;-13408.03;5050526;28;21006;-70
2021/08/15 02:45:23;;;;;;;0.70;0.70;;;;;;;16.12;100.00;-13417.56;5033656;28;20516;-73
2021/08/15 02:47:52;;;;;;;0.70;0.70;;;;;;;15.96;100.00;-13465.81;5024721;28;20471;-70
2021/08/15 02:50:21;;;;;;;1.53;1.43;;;;;;;15.82;100.00;-13694.22;5051932;28;20501;-70
2021/08/15 02:52:49;;;;;;;0.70;0.60;;;;;;;15.83;100.00;-14137.22;5051814;28;20459;-70
2021/08/15 02:55:16;;;;;;;0.70;0.70;;;;;;;15.79;100.00;-14566.84;5051842;28;20440;-71
2021/08/15 02:57:43;;;;;;;1.00;0.90;;;;;;;15.89;100.00;-14938.00;5049302;28;20421;-71
2021/08/15 03:00:12;;;;;;;0.90;0.90;;;;;;;15.93;100.00;-15305.53;5015714;28;20971;-72
2021/08/15 03:02:39;;;;;;;0.70;0.60;;;;;;;15.94;100.00;-15399.41;5047777;28;20495;-72
2021/08/15 03:05:08;;;;;;;0.70;0.70;;;;;;;15.92;100.00;-15515.34;5052823;28;20425;-72
2021/08/15 03:07:35;;;;;;;0.80;0.77;;;;;;;15.93;100.00;-15669.97;5035085;28;20487;-72
2021/08/15 03:10:05;;;;;;;0.70;0.70;;;;;;;15.87;100.00;-15838.34;5051978;28;20433;-72
2021/08/15 03:12:32;;;;;;;0.70;0.60;;;;;;;15.78;100.00;-15955.50;5051254;28;20949;-72
2021/08/15 03:14:59;;;;;;;0.70;0.70;;;;;;;15.67;100.00;-16130.41;5051677;28;20433;-72
2021/08/15 03:17:26;;;;;;;0.80;0.80;;;;;;;15.55;100.00;-16393.53;5052617;28;20536;-72
2021/08/15 03:19:53;;;;;;;1.00;0.90;;;;;;;15.56;100.00;-16606.06;5052930;28;20417;-72
2021/08/15 03:22:21;;;;;;;0.80;0.80;;;;;;;15.54;100.00;-16641.06;5052759;28;20432;-72
2021/08/15 03:24:48;;;;;;;0.80;0.80;;;;;;;15.52;100.00;-16703.84;5052868;28;20450;-70
2021/08/15 03:27:16;;;;;;;0.80;0.80;;;;;;;15.49;100.00;-16918.06;5045201;28;20441;-72
2021/08/15 03:29:43;;;;;;;0.70;0.60;;;;;;;15.45;100.00;-17235.84;5034296;28;20574;-72
2021/08/15 03:32:11;;;;;;;0.70;0.60;;;;;;;15.49;100.00;-17489.19;5042898;28;20440;-70
2021/08/15 03:34:37;;;;;;;0.80;0.80;;;;;;;15.54;100.00;-17657.03;5052815;28;20940;-70
2021/08/15 03:37:04;;;;;;;0.70;0.70;;;;;;;15.49;100.00;-17853.13;5053397;28;20492;-70
2021/08/15 03:39:31;;;;;;;0.80;0.80;;;;;;;15.65;100.00;-17717.69;5052663;28;20871;-70
2021/08/15 03:42:01;;;;;;;0.70;0.70;;;;;;;15.67;100.00;-17614.41;5055709;28;20478;-71
2021/08/15 03:44:31;;;;;;;1.00;1.00;;;;;;;15.71;100.00;-17347.31;5056971;28;20485;-71
2021/08/15 03:47:00;;;;;;;0.70;0.70;;;;;;;15.58;100.00;-17541.78;5044636;28;20437;-70
2021/08/15 03:49:27;;;;;;;0.70;0.70;;;;;;;15.69;100.00;-17394.94;5056434;28;20471;-72
2021/08/15 03:51:55;;;;;;;0.70;0.60;;;;;;;15.68;100.00;-17806.69;5056471;28;20503;-70
2021/08/15 03:54:22;;;;;;;0.70;0.60;;;;;;;15.62;100.00;-17871.19;5053824;28;20453;-71
2021/08/15 03:56:50;;;;;;;0.70;0.70;;;;;;;15.73;100.00;-17565.03;5055621;28;20993;-70
2021/08/15 03:59:17;;;;;;;0.70;0.70;;;;;;;15.82;100.00;-17182.69;5055285;28;20437;-72
2021/08/15 04:01:46;;;;;;;0.70;0.67;;;;;;;15.80;100.00;-16772.75;5055374;28;20467;-70
2021/08/15 04:04:14;;;;;;;0.70;0.60;;;;;;;15.71;100.00;-16485.22;5040970;28;20515;-72
2021/08/15 04:06:41;;;;;;;0.70;0.70;;;;;;;15.65;100.00;-16312.19;5036246;28;20527;-72
2021/08/15 04:09:10;;;;;;;1.00;0.70;;;;;;;15.64;100.00;-16084.41;5034739;28;20566;-71
2021/08/15 04:11:39;;;;;;;0.90;0.90;;;;;;;15.75;100.00;-15643.84;5036513;28;20427;-70
2021/08/15 04:14:06;;;;;;;0.80;0.80;;;;;;;15.80;100.00;-15234.97;5036441;28;20430;-72
2021/08/15 04:16:33;;;;;;;0.70;0.67;;;;;;;15.84;100.00;-14815.56;5037401;28;20462;-72
2021/08/15 04:19:02;;;;;;;0.70;0.60;;;;;;;15.88;100.00;-14370.94;5051850;28;20435;-72
2021/08/15 04:21:30;;;;;;;0.70;0.60;;;;;;;15.91;100.00;-13857.59;5036341;28;20480;-72
2021/08/15 04:23:57;;;;;;;0.80;0.80;;;;;;;15.98;100.00;-13347.13;5050953;28;20445;-70
2021/08/15 04:26:29;;;;;;;0.70;0.60;;;;;;;15.94;100.00;-12931.41;5034769;28;20520;-72
2021/08/15 04:28:56;;;;;;;0.90;0.90;;;;;;;15.97;100.00;-12427.72;5034827;28;20541;-70
2021/08/15 04:31:23;;;;;;;0.70;0.67;;;;;;;15.96;100.00;-11971.66;5048334;28;20446;-70
2021/08/15 04:33:50;;;;;;;0.70;0.60;;;;;;;16.05;100.00;-11471.22;5055257;28;20438;-71
2021/08/15 04:36:18;;;;;;;0.90;0.90;;;;;;;16.04;100.00;-11025.06;5055835;28;20414;-72
2021/08/15 04:38:45;;;;;;;0.70;0.60;;;;;;;15.98;100.00;-10674.69;5055964;28;20499;-72
2021/08/15 04:41:12;;;;;;;0.70;0.60;;;;;;;15.91;100.00;-10423.22;5054579;28;20412;-70
2021/08/15 04:43:39;;;;;;;0.70;0.70;;;;;;;15.94;100.00;-10000.22;5055923;28;20413;-71
2021/08/15 04:46:06;;;;;;;1.57;1.00;;;;;;;15.91;100.00;-9660.38;5055632;28;20502;-70
2021/08/15 04:48:33;;;;;;;0.70;0.60;;;;;;;15.94;100.00;-9394.47;5044185;28;21147;-72
2021/08/15 04:51:00;;;;;;;0.80;0.70;;;;;;;15.97;100.00;-9065.06;5047087;28;20447;-72
2021/08/15 04:53:28;;;;;;;0.70;0.70;;;;;;;15.92;100.00;-8866.94;5055356;28;20480;-72
2021/08/15 04:55:55;;;;;;;0.70;0.70;;;;;;;15.96;100.00;-8565.50;5055687;28;20432;-72
2021/08/15 04:58:22;;;;;;;0.70;0.60;;;;;;;15.92;100.00;-8245.75;5055630;28;20410;-72
2021/08/15 05:00:54;;;;;;;0.70;0.70;;;;;;;16.12;100.00;-7805.63;5054103;28;20434;-71
2021/08/15 05:03:21;;;;;;;0.70;0.70;;;;;;;16.20;100.00;-7339.19;5054062;28;20436;-71
2021/08/15 05:05:49;;;;;;;0.80;0.70;;;;;;;16.31;100.00;-6679.78;5053612;28;20948;-73
2021/08/15 05:08:16;;;;;;;5.03;1.10;;;;;;;16.40;100.00;-6085.97;5054954;28;20492;-72
2021/08/15 05:10:45;;;;;;;0.70;0.70;;;;;;;16.61;100.00;-5220.22;5055473;28;20889;-72
2021/08/15 05:13:12;;;;;;;0.70;0.70;;;;;;;16.73;100.00;-4272.31;5055328;28;20422;-71
2021/08/15 05:15:39;;;;;;;0.70;0.70;;;;;;;16.76;100.00;-3529.88;5054495;28;20523;-72
2021/08/15 05:18:06;;;;;;;0.70;0.70;;;;;;;16.88;100.00;-2614.00;5055102;28;20896;-72
2021/08/15 05:20:33;;;;;;;0.83;0.83;;;;;;;16.94;100.00;-1741.06;5051805;28;20484;-70
2021/08/15 05:23:00;;;;;;;0.70;0.70;;;;;;;16.99;100.00;-791.38;5044417;28;20466;-70
2021/08/15 05:25:27;;;;;;;0.80;0.80;;;;;;;17.07;100.00;85.16;5035571;28;20480;-73
2021/08/15 05:27:56;;;;;;;1.07;0.97;;;;;;;17.16;100.00;1033.50;5035088;28;20422;-70
2021/08/15 05:30:23;;;;;;;0.70;0.70;;;;;;;17.16;100.00;1818.38;5040594;28;20457;-71
2021/08/15 05:32:53;;;;;;;0.80;0.73;;;;;;;17.18;100.00;2588.38;5054935;28;20922;-72
2021/08/15 05:35:20;;;;;;;0.70;0.70;;;;;;;17.35;100.00;3620.59;5053317;28;20553;-70
2021/08/15 05:37:47;;;;;;;0.70;0.60;;;;;;;17.41;100.00;4373.94;5054485;28;20457;-71
2021/08/15 05:40:15;;;;;;;0.80;0.80;;;;;;;17.41;100.00;5088.47;5054631;28;20803;-72
2021/08/15 05:42:42;;;;;;;0.90;0.90;;;;;;;17.51;100.00;6080.56;5053580;28;20440;-72
2021/08/15 05:45:11;;;;;;;0.77;0.73;;;;;;;17.58;100.00;6763.66;5052348;28;20459;-72
2021/08/15 05:47:38;;;;;;;0.70;0.60;;;;;;;17.61;100.00;7566.34;5055044;28;20531;-70
2021/08/15 05:50:09;;;;;;;0.70;0.70;;;;;;;17.75;100.00;8253.91;5052798;28;20476;-73
2021/08/15 05:52:36;;;;;;;0.80;0.70;;;;;;;17.84;100.00;8792.75;5054607;28;20973;-71
2021/08/15 05:55:05;;;;;;;0.80;0.77;;;;;;;17.84;100.00;8710.81;5035131;28;20457;-71
2021/08/15 05:57:32;;;;;;;0.80;0.80;;;;;;;17.85;100.00;8759.72;5054747;28;20519;-71
2021/08/15 05:59:59;;;;;;;1.50;1.20;;;;;;;17.83;100.00;8498.50;5052595;28;20446;-71
2021/08/15 06:02:28;;;;;;;0.70;0.70;;;;;;;17.77;100.00;8024.38;5054451;28;20411;-72
2021/08/15 06:04:55;;;;;;;0.90;0.80;;;;;;;17.86;100.00;7443.38;5054420;28;20528;-72
2021/08/15 06:07:22;;;;;;;1.33;1.17;;;;;;;17.95;100.00;6440.47;5051829;28;20554;-71
2021/08/15 06:09:49;;;;;;;1.57;0.90;;;;;;;18.01;100.00;4484.47;5052298;28;20462;-71
2021/08/15 06:12:16;;;;;;;1.37;1.27;;;;;;;18.07;100.00;2769.19;5047581;28;20994;-72
2021/08/15 06:14:43;;;;;;;1.97;1.00;;;;;;;18.13;100.00;44.06;5047269;28;20477;-71
2021/08/15 06:17:10;;;;;;;0.80;0.80;;;;;;;18.32;100.00;-2577.00;5052811;28;20476;-70
2021/08/15 06:19:38;;;;;;;0.70;0.60;;;;;;;18.44;100.00;-7189.72;5054025;28;20536;-71
2021/08/15 06:22:08;;;;;;;0.70;0.60;;;;;;;18.69;100.00;-12961.69;5053383;28;20441;-72
2021/08/15 06:24:35;;;;;;;0.70;0.60;;;;;;;18.75;100.00;-19081.81;5053046;28;20489;-72
2021/08/15 06:27:03;;;;;;;0.70;0.67;;;;;;;18.88;100.00;-21193.66;5053147;28;20947;-72
2021/08/15 06:29:30;;;;;;;0.80;0.73;;;;;;;19.06;100.00;-21198.59;5053840;28;20493;-71
2021/08/15 06:31:57;;;;;;;0.80;0.70;;;;;;;19.27;100.00;-21204.19;5053835;28;20499;-71
2021/08/15 06:34:24;;;;;;;1.00;0.93;;;;;;;19.42;100.00;-21208.16;5053817;28;20526;-73
2021/08/15 06:36:53;;;;;;;0.70;0.60;;;;;;;19.45;100.00;-21208.84;5052328;28;20963;-71
2021/08/15 06:39:20;;;;;;;1.10;0.80;;;;;;;19.35;100.00;-21206.25;5053222;28;20443;-72
2021/08/15 06:41:47;;;;;;;0.80;0.70;;;;;;;19.31;100.00;-21205.28;5051207;28;20439;-70
2021/08/15 06:44:14;;;;;;;0.87;0.87;;;;;;;19.50;100.00;-21210.22;5053593;28;20418;-72
2021/08/15 06:46:42;;;;;;;0.90;0.90;;;;;;;19.50;100.00;-21210.22;5053255;28;20889;-71
2021/08/15 06:49:09;;;;;;;0.70;0.63;;;;;;;19.59;100.00;-21212.53;5052116;28;20481;-71
2021/08/15 06:51:36;;;;;;;1.00;0.90;;;;;;;19.67;100.00;-21214.88;5052215;28;20997;-72
2021/08/15 06:54:05;;;;;;;0.80;0.70;;;;;;;19.97;100.00;-21222.94;5039746;28;20525;-72
2021/08/15 06:56:32;;;;;;;0.80;0.70;;;;;;;20.09;100.00;-21226.06;5050107;28;20440;-73
2021/08/15 06:59:01;;;;;;;0.80;0.77;;;;;;;20.20;100.00;-21228.94;5051791;28;20428;-72
2021/08/15 07:01:28;;;;;;;1.30;1.20;;;;;;;20.41;100.00;-21234.69;5033450;28;20493;-72
2021/08/15 07:03:56;;;;;;;0.73;0.70;;;;;;;20.55;100.00;-21238.22;5032096;28;20483;-72
2021/08/15 07:06:23;;;;;;;0.80;0.70;;;;;;;20.71;100.00;-21242.75;5032698;28;20543;-71
2021/08/15 07:08:50;;;;;;;3.37;1.17;;;;;;;20.98;100.00;-21249.84;5051758;28;20452;-72
2021/08/15 07:11:18;;;;;;;0.80;0.80;;;;;;;21.32;100.00;-21258.84;5055066;28;20978;-72
2021/08/15 07:13:45;;;;;;;1.17;1.07;;;;;;;21.36;100.00;-21260.06;5051588;28;20493;-72
2021/08/15 07:16:13;;;;;;;0.80;0.70;;;;;;;21.31;100.00;-21258.56;5047075;28;20472;-72
2021/08/15 07:18:40;;;;;;;0.80;0.70;;;;;;;21.11;100.00;-21253.38;5050686;28;20459;-72
2021/08/15 07:21:07;;;;;;;1.00;0.80;;;;;;;21.06;100.00;-21252.03;5051393;28;20515;-73
2021/08/15 07:23:34;;;;;;;0.80;0.70;;;;;;;21.09;100.00;-21252.84;5052899;28;20444;-72
2021/08/15 07:26:03;;;;;;;1.17;1.07;;;;;;;21.08;100.00;-21252.44;5052807;28;20424;-73
2021/08/15 07:28:33;;;;;;;2.23;0.90;;;;;;;21.37;100.00;-21260.22;5051419;28;20979;-72
2021/08/15 07:31:02;;;;;;;1.00;0.90;;;;;;;21.42;100.00;-21261.56;5051694;28;20452;-72
2021/08/15 07:33:31;;;;;;;1.27;0.90;;;;;;;21.49;100.00;-21263.34;5052927;28;20518;-72
2021/08/15 07:36:00;;;;;;;0.70;0.60;;;;;;;21.63;100.00;-21267.28;5052345;28;20428;-72
2021/08/15 07:38:27;;;;;;;0.70;0.70;;;;;;;21.80;100.00;-21271.78;5052598;28;20538;-71
2021/08/15 07:40:55;;;;;;;0.70;0.60;;;;;;;21.82;100.00;-21272.19;5051375;28;20529;-72
2021/08/15 07:43:21;;;;;;;1.73;1.63;;;;;;;22.12;100.00;-21280.38;5052652;28;20412;-72
2021/08/15 07:45:50;;;;;;;0.77;0.60;;;;;;;22.34;100.00;-21286.22;5052861;28;20403;-71
2021/08/15 07:48:17;;;;;;;4.53;1.00;;;;;;;22.74;100.00;-21296.84;5051385;28;20926;-73
2021/08/15 07:50:44;;;;;;;0.80;0.73;;;;;;;23.13;100.00;-21307.34;5050953;28;20484;-70
2021/08/15 07:53:33;;;;;;;1.13;1.03;;;;;;;23.00;100.00;-21303.78;5052447;28;20413;-72
2021/08/15 07:56:00;;;;;;;0.80;0.70;;;;;;;22.98;100.00;-21303.25;5051470;28;21380;-71
2021/08/15 07:58:28;;;;;;;0.70;0.60;;;;;;;23.06;100.00;-21305.44;5051853;28;20907;-72
2021/08/15 08:00:59;;;;;;;4.53;0.90;;;;;;;23.11;100.00;-21306.78;5052535;28;20409;-71
2021/08/15 08:03:26;;;;;;;1.13;1.03;;;;;;;23.32;100.00;-21312.22;5051391;28;20498;-71
2021/08/15 08:05:54;;;;;;;0.70;0.60;;;;;;;23.23;100.00;-21309.91;5051300;28;20943;-72
2021/08/15 08:08:21;;;;;;;0.70;0.60;;;;;;;23.66;100.00;-21321.19;5038652;28;20469;-72
2021/08/15 08:10:50;;;;;;;0.80;0.80;;;;;;;23.76;100.00;-21324.06;5051250;28;20498;-73
2021/08/15 08:13:18;;;;;;;1.57;1.00;;;;;;;23.67;100.00;-21321.47;5051454;28;20440;-72
2021/08/15 08:15:45;;;;;;;0.80;0.70;;;;;;;23.49;100.00;-21316.84;5052680;28;20511;-72
2021/08/15 08:18:14;;;;;;;0.80;0.60;;;;;;;23.96;100.00;-21329.34;5051784;28;20440;-72
2021/08/15 08:20:41;;;;;;;0.80;0.60;;;;;;;24.39;100.00;-21340.63;5051837;28;20459;-72
2021/08/15 08:23:12;;;;;;;1.00;0.80;;;;;;;24.27;100.00;-21337.50;5050554;28;20431;-72
2021/08/15 08:25:40;;;;;;;0.80;0.70;;;;;;;24.44;100.00;-21342.00;5034893;28;20410;-72
2021/08/15 08:28:07;;;;;;;0.80;0.80;;;;;;;24.79;100.00;-21351.34;5055052;28;20847;-71
2021/08/15 08:30:35;;;;;;;0.83;0.70;;;;;;;24.88;100.00;-21353.78;5054687;28;20511;-73
2021/08/15 08:33:02;;;;;;;0.80;0.70;;;;;;;25.03;100.00;-21357.72;5054637;28;20446;-74
2021/08/15 08:35:31;;;;;;;0.70;0.60;;;;;;;25.05;100.00;-21358.41;5056402;28;20428;-72
2021/08/15 08:37:58;;;;;;;0.77;0.63;;;;;;;25.60;100.00;-21372.78;5055726;28;20448;-71
2021/08/15 08:40:29;;;;;;;0.70;0.60;;;;;;;26.17;100.00;-21388.09;5054862;28;20455;-72
2021/08/15 08:42:57;;;;;;;0.70;0.60;;;;;;;26.20;100.00;-21388.91;5059188;28;20931;-73
2021/08/15 08:45:31;;;;;;;0.83;0.70;;;;;;;26.65;100.00;-21400.81;5056812;28;20420;-75
2021/08/15 08:47:59;;;;;;;0.90;0.80;;;;;;;26.68;100.00;-21401.63;5050699;28;20436;-72
2021/08/15 08:50:26;;;;;;;0.80;0.70;;;;;;;26.77;100.00;-21403.78;5056035;28;20452;-71
2021/08/15 08:52:57;;;;;;;0.80;0.70;;;;;;;26.87;100.00;-21406.63;5055435;28;20501;-71
2021/08/15 08:55:24;;;;;;;1.00;0.90;;;;;;;27.16;100.00;-21414.19;5053218;28;20472;-71
2021/08/15 08:57:51;;;;;;;0.73;0.50;;;;;;;27.82;100.00;-21431.63;5054688;28;20448;-71
2021/08/15 09:00:19;;;;;;;0.77;0.60;;;;;;;28.71;100.00;-21455.25;5037906;28;20434;-72
2021/08/15 09:02:46;;;;;;;0.80;0.60;;;;;;;29.19;100.00;-21467.94;5057221;28;20839;-72
2021/08/15 09:05:28;;;;;;;0.80;0.67;;;;;;;29.86;100.00;-21485.56;5056736;28;20439;-72
2021/08/15 09:08:00;;;;;;;0.70;0.50;;;;;;;29.75;100.00;-21482.75;5053825;28;20452;-74
2021/08/15 09:10:33;;;;;;;0.70;0.50;;;;;;;29.24;100.00;-21469.16;5054723;28;20513;-71
2021/08/15 09:13:03;;;;;;;1.40;0.90;;;;;;;28.62;100.00;-21452.81;5045406;28;20431;-72
2021/08/15 09:15:30;;;;;;;1.00;0.60;;;;;;;27.79;100.00;-21430.81;5040386;28;20440;-72
2021/08/15 09:17:58;;;;;;;0.90;0.70;;;;;;;27.32;100.00;-21418.53;5054890;28;20765;-72
2021/08/15 09:20:38;;;;;;;0.80;0.60;;;;;;;26.97;100.00;-21409.34;5055553;28;20434;-71
2021/08/15 09:23:22;;;;;;;0.80;0.60;;;;;;;27.23;100.00;-21416.09;5055925;28;20455;-75
2021/08/15 09:26:15;;;;;;;0.90;0.67;;;;;;;27.93;100.00;-21434.75;5055899;28;20936;-73
2021/08/15 09:28:51;;;;;;;0.70;0.50;;;;;;;27.71;100.00;-21428.78;5056998;28;20413;-76
2021/08/15 09:31:28;;;;;;;0.70;0.60;;;;;;;28.11;100.00;-21439.47;5054980;28;20451;-71
2021/08/15 09:33:57;;;;;;;1.23;1.13;;;;;;;28.96;100.00;-21461.72;5037582;28;20525;-74
2021/08/15 09:36:29;;;;;;;0.70;0.50;;;;;;;29.51;100.00;-21476.41;5053513;28;20436;-72
2021/08/15 09:39:00;;;;;;;2.77;1.00;;;;;;;29.32;100.00;-21471.28;5054437;28;20464;-71
2021/08/15 09:41:31;;;;;;;0.70;0.53;;;;;;;28.66;100.00;-21453.91;5054740;28;20405;-71
2021/08/15 09:44:18;;;;;;;1.13;0.70;;;;;;;28.53;100.00;-21450.41;5029838;28;20537;-71
2021/08/15 09:47:06;;;;;;;0.80;0.60;;;;;;;27.84;100.00;-21432.31;5033674;28;20417;-72
2021/08/15 09:49:36;;;;;;;0.70;0.50;;;;;;;27.76;100.00;-21430.16;5050649;28;20882;-70
2021/08/15 09:52:05;;;;;;;0.80;0.50;;;;;;;28.73;100.00;-21455.66;5034864;28;20543;-71
2021/08/15 09:54:34;;;;;;;1.27;1.17;;;;;;;28.82;100.00;-21458.22;5034349;28;20548;-72
2021/08/15 09:57:04;;;;;;;0.80;0.70;;;;;;;29.38;100.00;-21472.91;5035157;28;20448;-72
2021/08/15 09:59:36;;;;;;;0.80;0.63;;;;;;;29.71;100.00;-21481.53;5053779;28;20925;-72
2021/08/15 10:02:05;;;;;;;0.70;0.50;;;;;;;29.80;100.00;-21484.09;5049753;28;20444;-72
2021/08/15 10:04:33;;;;;;;0.70;0.60;;;;;;;29.26;100.00;-21469.81;5041950;28;20531;-71
2021/08/15 10:07:01;;;;;;;0.70;0.50;;;;;;;28.71;100.00;-21455.25;5034380;28;20471;-71
2021/08/15 10:09:31;;;;;;;0.70;0.50;;;;;;;28.50;100.00;-21449.59;5033564;28;20532;-71
2021/08/15 10:11:59;;;;;;;0.80;0.50;;;;;;;28.18;100.00;-21441.34;5035939;28;20547;-71
2021/08/15 10:14:27;;;;;;;0.70;0.50;;;;;;;27.84;100.00;-21432.31;5053736;28;20440;-71
2021/08/15 10:16:57;;;;;;;0.70;0.50;;;;;;;28.05;100.00;-21437.72;5054269;28;20439;-71
2021/08/15 10:19:37;;;;;;;0.70;0.60;;;;;;;28.57;100.00;-21451.47;5052824;28;20491;-74
2021/08/15 10:22:04;;;;;;;0.70;0.50;;;;;;;29.60;100.00;-21478.72;5054029;28;20455;-73
2021/08/15 10:24:45;;;;;;;0.70;0.50;;;;;;;31.43;100.00;-21526.84;5053347;28;20448;-74
2021/08/15 10:27:46;;;;;;;0.80;0.60;;;;;;;33.61;100.00;-21584.06;5052018;28;20413;-71
2021/08/15 10:30:45;;;;;;;1.40;0.73;;;;;;;33.90;100.00;-21591.69;5053543;28;20954;-73
2021/08/15 10:33:18;;;;;;;0.80;0.50;;;;;;;34.10;100.00;-21597.06;5054264;28;20446;-73
2021/08/15 10:36:25;;;;;;;0.80;0.50;;;;;;;34.18;100.00;-21598.94;5054270;28;20443;-72
2021/08/15 10:38:58;;;;;;;0.87;0.60;;;;;;;34.16;100.00;-21598.53;5039718;28;20467;-73
2021/08/15 10:41:51;;;;;;;1.10;1.00;;;;;;;33.38;100.00;-21578.06;5056212;28;20928;-72
2021/08/15 10:44:21;;;;;;;0.87;0.50;;;;;;;33.13;100.00;-21571.63;5053560;28;20431;-72
2021/08/15 10:47:14;;;;;;;1.00;0.80;;;;;;;30.61;100.00;-21505.34;5051645;28;20770;-73
2021/08/15 10:49:46;;;;;;;0.80;0.50;;;;;;;29.98;100.00;-21488.66;5053088;28;20431;-73
2021/08/15 10:52:26;;;;;;;0.80;0.50;;;;;;;30.40;100.00;-21499.69;5053550;28;20827;-73
2021/08/15 10:55:00;;;;;;;0.80;0.50;;;;;;;31.69;100.00;-21533.81;5034366;28;20417;-71
2021/08/15 10:57:34;;;;;;;1.50;0.80;;;;;;;33.31;100.00;-21576.31;5052593;28;20432;-73
2021/08/15 11:00:24;;;;;;;0.90;0.60;;;;;;;32.55;100.00;-21556.38;5054836;28;20447;-71
2021/08/15 11:02:56;;;;;;;0.80;0.50;;;;;;;32.45;100.00;-21553.69;5020399;28;20793;-71
2021/08/15 11:05:34;;;;;;;0.80;0.50;;;;;;;33.93;100.00;-21592.50;5044877;28;20443;-70
2021/08/15 11:08:02;;;;;;;0.80;0.50;;;;;;;34.85;100.00;-21616.56;5041351;28;20471;-72
2021/08/15 11:11:04;;;;;;;0.90;0.80;;;;;;;34.75;100.00;-21613.88;5052835;28;20459;-73
2021/08/15 11:13:33;;;;;;;0.80;0.50;;;;;;;34.59;100.00;-21609.75;5051827;28;20522;-69
2021/08/15 11:16:34;;;;;;;1.20;1.03;;;;;;;33.91;100.00;-21591.97;5041734;28;20526;-74
2021/08/15 11:19:36;;;;;;;0.80;0.50;;;;;;;35.34;100.00;-21629.34;5042972;28;20431;-69
2021/08/15 11:22:29;;;;;;;0.90;0.50;;;;;;;35.21;100.00;-21625.91;5054190;28;20952;-71
2021/08/15 11:25:02;;;;;;;0.90;0.60;;;;;;;35.96;100.00;-21645.50;5038466;28;20437;-70
2021/08/15 11:27:35;;;;;;;1.47;0.70;;;;;;;35.00;100.00;-21620.56;5033499;28;20435;-69
2021/08/15 11:30:07;;;;;;;0.80;0.50;;;;;;;33.32;100.00;-21576.44;5033230;28;20409;-74
2021/08/15 11:32:34;;;;;;;0.90;0.60;;;;;;;33.97;100.00;-21593.56;5030415;28;20524;-72